createdAt,value
2022-11-13T00:04:43.595Z,100
2022-11-13T00:16:39.154Z,100
2022-11-13T00:23:10.971Z,100
2022-11-13T00:35:48.448Z,100
2022-11-13T00:42:02.884Z,100
2022-11-13T00:48:05.605Z,100
2022-11-13T00:54:10.393Z,100
2022-11-13T01:00:02.847Z,100
2022-11-13T01:05:56.935Z,100
2022-11-13T01:11:52.827Z,100
2022-11-13T01:17:59.255Z,100
2022-11-13T01:24:00.472Z,100
2022-11-13T01:29:56.719Z,100
2022-11-13T01:35:57.541Z,100
2022-11-13T01:41:51.318Z,100
2022-11-13T01:47:47.669Z,100
2022-11-13T01:53:44.608Z,100
2022-11-13T01:59:36.549Z,100
2022-11-13T02:05:31.779Z,100
2022-11-13T02:11:29.756Z,100
2022-11-13T02:17:26.716Z,100
2022-11-13T02:23:29.537Z,100
2022-11-13T02:29:38.553Z,100
2022-11-13T02:35:46.084Z,100
2022-11-13T02:41:44.420Z,100
2022-11-13T02:47:36.492Z,100
2022-11-13T02:53:33.382Z,100
2022-11-13T02:59:29.956Z,100
2022-11-13T03:05:20.519Z,100
2022-11-13T03:11:13.273Z,100
2022-11-13T03:17:10.247Z,100
2022-11-13T03:23:07.082Z,100
2022-11-13T03:29:08.085Z,100
2022-11-13T03:35:06.112Z,100
2022-11-13T03:40:56.951Z,100
2022-11-13T03:46:47.261Z,100
2022-11-13T03:52:40.177Z,100
2022-11-13T03:58:31.950Z,100
2022-11-13T04:04:38.419Z,100
2022-11-13T04:10:32.771Z,100
2022-11-13T04:16:25.626Z,100
2022-11-13T04:22:16.997Z,100
2022-11-13T04:28:08.155Z,100
2022-11-13T04:34:01.592Z,100
2022-11-13T04:39:59.387Z,100
2022-11-13T04:45:50.946Z,100
2022-11-13T04:51:44.014Z,100
2022-11-13T04:57:38.296Z,100
2022-11-13T05:03:32.192Z,100
2022-11-13T05:09:27.072Z,100
2022-11-13T05:15:23.676Z,100
2022-11-13T05:21:26.720Z,100
2022-11-13T05:27:19.844Z,100
2022-11-13T05:33:28.514Z,100
2022-11-13T05:39:24.313Z,100
2022-11-13T05:45:38.028Z,100
2022-11-13T05:51:31.652Z,100
2022-11-13T05:57:31.904Z,100
2022-11-13T06:03:25.117Z,100
2022-11-13T06:10:26.657Z,100
2022-11-13T06:16:21.009Z,100
2022-11-13T06:22:34.275Z,100
2022-11-13T06:28:24.965Z,100
2022-11-13T06:34:29.925Z,100
2022-11-13T06:40:27.458Z,100
2022-11-13T06:46:17.988Z,100
2022-11-13T06:52:11.828Z,100
2022-11-13T06:58:01.675Z,100
2022-11-13T07:03:58.958Z,100
2022-11-13T07:09:55.761Z,100
2022-11-13T07:15:48.976Z,100
2022-11-13T12:21:20.157Z,68.6
2022-11-13T12:39:31.961Z,66.1
2022-11-13T12:51:57.642Z,66.2
2022-11-13T12:58:20.387Z,65.6
2022-11-13T13:04:50.079Z,65.3
2022-11-13T13:10:45.855Z,64.4
2022-11-13T13:16:42.164Z,63.7
2022-11-13T13:22:32.792Z,62.3
2022-11-13T13:34:51.067Z,59.8
2022-11-13T13:48:09.589Z,59.8
2022-11-13T14:00:13.034Z,61.4
2022-11-13T14:13:08.885Z,61.3
2022-11-13T14:19:00.832Z,62
2022-11-13T14:24:51.787Z,61.7
2022-11-13T14:30:42.528Z,62.6
2022-11-13T14:36:32.365Z,62.8
2022-11-13T14:42:23.609Z,63
2022-11-13T14:48:13.956Z,63.3
2022-11-13T14:54:10.187Z,63.7
2022-11-13T15:00:00.204Z,64.7
2022-11-13T15:05:51.302Z,65.8
2022-11-13T15:11:42.008Z,66.9
2022-11-13T15:17:32.411Z,67.6
2022-11-13T15:23:22.817Z,68.4
2022-11-13T15:29:14.839Z,69.5
2022-11-13T15:35:05.833Z,72.2
2022-11-13T15:40:56.171Z,76.5
2022-11-13T15:46:45.983Z,76.6
2022-11-13T15:52:36.518Z,77.4
2022-11-13T15:58:29.282Z,77.6
2022-11-13T16:04:24.128Z,78.5
2022-11-13T16:10:42.661Z,78.6
2022-11-13T16:16:32.596Z,78.9
2022-11-13T16:22:23.280Z,79.3
2022-11-13T16:28:13.821Z,79.2
2022-11-13T16:34:04.504Z,81.5
2022-11-13T16:39:57.005Z,79.3
2022-11-13T16:45:47.980Z,80.7
2022-11-13T16:51:38.715Z,81.2
2022-11-13T16:57:29.074Z,82.1
2022-11-13T17:03:18.954Z,82.7
2022-11-13T17:09:08.924Z,83.8
2022-11-13T17:14:59.658Z,84.2
2022-11-13T17:20:50.812Z,84.5
2022-11-13T17:26:41.291Z,83.3
2022-11-13T17:32:31.633Z,85.5
2022-11-13T17:38:21.925Z,84.2
2022-11-13T17:44:11.913Z,84.6
2022-11-13T17:50:08.677Z,84.5
2022-11-13T17:55:58.821Z,84.5
2022-11-13T18:01:51.796Z,86.8
2022-11-13T18:07:41.842Z,87.4
2022-11-13T18:13:33.831Z,87.5
2022-11-13T18:19:25.062Z,86.4
2022-11-13T18:25:16.699Z,88.3
2022-11-13T18:31:06.369Z,87.8
2022-11-13T18:36:56.634Z,87.9
2022-11-13T18:42:47.374Z,88.4
2022-11-13T18:48:37.749Z,88.6
2022-11-13T18:54:27.783Z,87.5
2022-11-13T19:00:18.340Z,86.9
2022-11-13T19:06:07.201Z,88.1
2022-11-13T19:11:57.845Z,88
2022-11-13T19:17:54.781Z,89.2
2022-11-13T19:23:44.460Z,88
2022-11-13T19:29:35.211Z,87.9
2022-11-13T19:35:25.848Z,89.1
2022-11-13T19:41:17.279Z,91.2
2022-11-13T19:47:08.200Z,89.4
2022-11-13T19:52:59.443Z,90.5
2022-11-13T19:58:50.546Z,90.5
2022-11-13T20:04:40.829Z,90
2022-11-13T20:10:32.243Z,89.3
2022-11-13T20:16:23.116Z,89.1
2022-11-13T20:22:13.042Z,89.6
2022-11-13T20:28:03.674Z,90.3
2022-11-13T20:33:53.746Z,91.2
2022-11-13T20:39:44.507Z,91.5
2022-11-13T20:45:35.707Z,92.1
2022-11-13T20:51:26.614Z,91.3
2022-11-13T20:57:17.546Z,91.7
2022-11-13T21:03:09.215Z,90.8
2022-11-13T21:09:04.819Z,90.5
2022-11-13T21:14:54.990Z,90.3
2022-11-13T21:20:45.617Z,90.8
2022-11-13T21:26:35.247Z,89.9
2022-11-13T21:32:26.056Z,92.6
2022-11-13T21:38:16.774Z,92.3
2022-11-13T21:44:07.646Z,91.6
2022-11-13T21:49:59.842Z,90.4
2022-11-13T21:55:50.701Z,90.4
2022-11-13T22:01:42.570Z,92.5
2022-11-13T22:07:33.939Z,91.7
2022-11-13T22:13:24.957Z,93.2
2022-11-13T22:19:17.076Z,91.4
2022-11-13T22:25:22.290Z,91.8
2022-11-13T22:31:13.193Z,91.6
2022-11-13T22:37:03.945Z,92.2
2022-11-13T22:42:57.359Z,94.3
2022-11-13T22:48:53.467Z,93.6
2022-11-13T22:54:44.797Z,92
2022-11-13T23:00:35.771Z,91.7
2022-11-13T23:06:26.553Z,92.7
2022-11-13T23:12:18.241Z,91.6
2022-11-13T23:18:12.374Z,93.2
2022-11-13T23:24:02.826Z,92.2
2022-11-13T23:29:55.970Z,90.8
2022-11-13T23:35:46.569Z,92.2
2022-11-13T23:41:37.625Z,91.5
2022-11-13T23:47:29.027Z,91.8
2022-11-13T23:53:19.145Z,93.3
2022-11-13T23:59:09.779Z,92
